Time;durP1;ratioP1;P1;durP2;ratioP2;P2;SDS_P1;SDS_P2;PMS_P1;PMS_P2;Temp;Humidity;BMP_temperature;BMP_pressure;BME280_temperature;BME280_humidity;BME280_pressure;Samples;Min_cycle;Max_cycle;Signal;HPM_P1;HPM_P2
2021/12/24 00:00:03;;;;;;;46.37;23.67;;;;;;;-0.90;100.00;97372.59;2140895;83;21073;-82
2021/12/24 00:03:06;;;;;;;44.23;24.80;;;;;;;-0.92;100.00;97367.57;2140742;83;21098;-83
2021/12/24 00:06:07;;;;;;;45.20;24.18;;;;;;;-0.89;100.00;97358.31;2140696;83;21548;-82
2021/12/24 00:09:08;;;;;;;41.02;23.40;;;;;;;-0.90;100.00;97361.84;2140830;83;20964;-83
2021/12/24 00:12:15;;;;;;;44.38;23.57;;;;;;;-0.91;100.00;97355.08;2140619;83;21091;-82
2021/12/24 00:38:03;;;;;;;42.43;23.25;;;;;;;-0.83;100.00;97304.23;2008572;88;21142;-85
2021/12/24 00:41:02;;;;;;;35.23;21.93;;;;;;;-0.87;100.00;97295.20;2025949;88;21158;-87
2021/12/24 00:44:03;;;;;;;39.38;23.20;;;;;;;-0.88;100.00;97290.55;2069401;86;21547;-87
2021/12/24 00:47:04;;;;;;;45.03;24.18;;;;;;;-0.87;100.00;97288.30;2026240;88;21607;-86
2021/12/24 00:50:08;;;;;;;39.27;23.65;;;;;;;-0.83;100.00;97288.01;2069360;86;21020;-87
2021/12/24 00:55:02;;;;;;;42.67;23.87;;;;;;;-0.84;100.00;97282.06;2026110;88;21167;-83
2021/12/24 00:56:10;;;;;;;45.60;24.90;;;;;;;-0.86;100.00;97269.36;2109005;84;21167;-83
2021/12/24 00:59:11;;;;;;;43.65;23.52;;;;;;;-0.84;100.00;97275.64;2163272;81;20994;-87
2021/12/24 01:02:12;;;;;;;45.55;25.40;;;;;;;-0.84;100.00;97269.69;2187837;81;21056;-84
2021/12/24 01:05:13;;;;;;;45.75;24.07;;;;;;;-0.82;100.00;97253.20;2187800;81;20989;-84
2021/12/24 01:08:13;;;;;;;46.00;23.70;;;;;;;-0.79;100.00;97249.52;2187528;81;21512;-83
2021/12/24 01:11:14;;;;;;;47.53;26.27;;;;;;;-0.78;100.00;97255.80;2187742;81;21088;-82
2021/12/24 01:14:15;;;;;;;41.28;23.75;;;;;;;-0.76;100.00;97253.89;2187836;81;21521;-83
2021/12/24 01:20:39;;;;;;;37.70;21.15;;;;;;;-0.72;100.00;97246.23;2187697;81;20985;-83
2021/12/24 01:23:35;;;;;;;46.92;27.75;;;;;;;-0.68;100.00;97235.17;2185326;81;21088;-83
2021/12/24 01:26:45;;;;;;;51.83;25.80;;;;;;;-0.64;100.00;97227.49;2187164;81;20982;-83
2021/12/24 01:39:38;;;;;;;42.43;23.57;;;;;;;-0.57;100.00;97201.06;2187502;81;21054;-83
2021/12/24 01:42:40;;;;;;;39.30;21.17;;;;;;;-0.52;100.00;97193.41;2186028;81;21030;-83
2021/12/24 01:45:41;;;;;;;44.18;22.40;;;;;;;-0.53;100.00;97192.59;2187669;81;21016;-83
2021/12/24 01:48:42;;;;;;;40.25;20.43;;;;;;;-0.53;100.00;97181.02;2187801;81;21548;-83
2021/12/24 01:51:43;;;;;;;42.17;21.75;;;;;;;-0.55;100.00;97176.96;2187762;81;21069;-83
2021/12/24 01:54:43;;;;;;;35.88;20.82;;;;;;;-0.55;100.00;97172.63;2187673;81;20989;-83
2021/12/24 01:57:44;;;;;;;43.73;21.55;;;;;;;-0.53;100.00;97164.79;2187889;81;20985;-83
2021/12/24 02:00:45;;;;;;;34.55;20.12;;;;;;;-0.48;100.00;97165.14;2187913;81;21014;-83
2021/12/24 02:03:46;;;;;;;39.55;21.27;;;;;;;-0.44;100.00;97158.28;2188028;81;20953;-83
2021/12/24 02:06:47;;;;;;;45.38;26.20;;;;;;;-0.43;100.00;97148.80;2187720;81;20958;-83
2021/12/24 02:09:47;;;;;;;45.85;24.20;;;;;;;-0.43;100.00;97142.37;2187555;81;21667;-83
2021/12/24 02:12:48;;;;;;;37.15;21.07;;;;;;;-0.41;100.00;97134.02;2187667;81;21001;-83
2021/12/24 02:16:07;;;;;;;32.78;19.48;;;;;;;-0.39;100.00;97134.20;2187838;81;21450;-83
2021/12/24 02:28:40;;;;;;;29.00;18.75;;;;;;;-0.29;100.00;97102.76;2187584;81;21591;-83
2021/12/24 02:31:40;;;;;;;24.70;17.07;;;;;;;-0.27;100.00;97103.92;2187645;81;21108;-83
2021/12/24 02:34:41;;;;;;;27.48;17.67;;;;;;;-0.25;100.00;97098.14;2187811;81;21521;-83
2021/12/24 02:37:42;;;;;;;26.75;17.15;;;;;;;-0.22;100.00;97100.88;2187506;81;20977;-82
2021/12/24 02:40:43;;;;;;;30.15;19.27;;;;;;;-0.21;100.00;97103.77;2187643;81;21085;-83
2021/12/24 02:43:44;;;;;;;25.68;17.30;;;;;;;-0.18;100.00;97104.75;2187664;81;21516;-83
2021/12/24 02:56:18;;;;;;;26.73;17.05;;;;;;;-0.14;100.00;97070.86;2187698;81;21711;-82
2021/12/24 02:59:24;;;;;;;26.17;18.27;;;;;;;-0.14;100.00;97062.34;2187473;81;20975;-83
2021/12/24 03:02:21;;;;;;;23.57;15.55;;;;;;;-0.14;100.00;97064.44;2187274;81;21038;-83
2021/12/24 03:05:22;;;;;;;30.27;19.60;;;;;;;-0.15;100.00;97060.25;2188183;81;21024;-83
2021/12/24 03:08:23;;;;;;;25.92;18.02;;;;;;;-0.13;100.00;97061.38;2187727;81;20958;-83
2021/12/24 03:11:24;;;;;;;24.37;17.45;;;;;;;-0.12;100.00;97065.08;2187704;81;21104;-83
2021/12/24 03:14:24;;;;;;;23.92;16.48;;;;;;;-0.10;100.00;97057.20;2187831;81;21520;-83
2021/12/24 03:17:26;;;;;;;26.62;17.85;;;;;;;-0.12;100.00;97057.36;2187842;81;20910;-83
2021/12/24 03:20:33;;;;;;;23.30;15.90;;;;;;;-0.08;100.00;97062.55;2187766;81;21026;-83
2021/12/24 03:23:42;;;;;;;27.45;17.15;;;;;;;-0.03;100.00;97041.48;2187384;81;21064;-83
2021/12/24 03:26:38;;;;;;;24.82;15.65;;;;;;;-0.04;100.00;97048.41;2186516;81;21500;-83
2021/12/24 03:29:39;;;;;;;24.25;16.87;;;;;;;-0.02;100.00;97043.09;2187838;81;20970;-83
2021/12/24 03:32:40;;;;;;;28.00;18.07;;;;;;;-0.01;100.00;97041.66;2187911;81;21520;-83
2021/12/24 03:35:40;;;;;;;24.98;16.23;;;;;;;0.02;100.00;97034.13;2187653;81;20926;-83
2021/12/24 03:38:41;;;;;;;24.12;17.27;;;;;;;0.06;100.00;97019.17;2183670;81;21557;-83
2021/12/24 03:41:42;;;;;;;22.30;15.63;;;;;;;0.06;100.00;97019.17;2171191;82;21077;-83
2021/12/24 03:44:50;;;;;;;23.18;16.23;;;;;;;0.07;100.00;97031.88;2171365;81;20994;-83
2021/12/24 03:47:52;;;;;;;24.18;17.07;;;;;;;0.06;100.00;97022.55;2170733;81;20981;-83
2021/12/24 03:57:08;;;;;;;22.10;15.23;;;;;;;0.08;100.00;97015.95;2171278;82;21517;-83
2021/12/24 04:00:09;;;;;;;24.80;17.05;;;;;;;0.09;100.00;97018.85;2171127;81;20955;-83
2021/12/24 04:03:09;;;;;;;21.45;16.15;;;;;;;0.08;100.00;97015.95;2171196;81;21072;-83
2021/12/24 04:06:10;;;;;;;26.45;16.93;;;;;;;0.11;100.00;97015.19;2171091;81;20990;-83
2021/12/24 04:09:11;;;;;;;28.83;18.05;;;;;;;0.13;100.00;97019.69;2171330;82;21063;-83
2021/12/24 04:12:12;;;;;;;29.42;17.27;;;;;;;0.16;100.00;97018.08;2171081;82;21013;-83
2021/12/24 04:15:13;;;;;;;26.37;17.42;;;;;;;0.18;100.00;97011.48;2171324;81;21057;-83
2021/12/24 04:18:19;;;;;;;25.65;16.40;;;;;;;0.19;100.00;97003.64;2171069;81;21295;-83
2021/12/24 04:27:52;;;;;;;32.08;19.95;;;;;;;0.29;100.00;96997.06;2171066;82;21023;-83
2021/12/24 04:30:54;;;;;;;25.97;17.02;;;;;;;0.28;100.00;96992.88;2171168;81;21070;-83
2021/12/24 04:33:59;;;;;;;30.20;18.77;;;;;;;0.28;100.00;96990.31;2171276;81;21046;-84
2021/12/24 05:01:13;;;;;;;82.70;44.60;;;;;;;0.28;100.00;96992.88;2171123;82;21029;-83
2021/12/24 05:03:09;;;;;;;28.70;16.35;;;;;;;0.33;100.00;96987.25;2171058;82;21026;-83
2021/12/24 05:09:12;;;;;;;33.23;20.43;;;;;;;0.32;100.00;96987.73;2074092;86;21055;-83
2021/12/24 05:12:13;;;;;;;26.52;17.12;;;;;;;0.32;100.00;96985.64;2074024;85;21079;-83
2021/12/24 05:15:14;;;;;;;26.33;17.67;;;;;;;0.33;100.00;96988.05;2074231;85;21478;-83
2021/12/24 05:18:29;;;;;;;27.85;19.52;;;;;;;0.34;100.00;96979.84;2074136;86;20973;-85
2021/12/24 05:24:36;;;;;;;98.15;54.03;;;;;;;0.40;100.00;96967.64;2074139;86;21043;-83
2021/12/24 05:27:37;;;;;;;59.38;27.93;;;;;;;0.41;100.00;96966.19;2074139;85;21075;-82
2021/12/24 05:30:38;;;;;;;43.92;22.48;;;;;;;0.42;100.00;96957.50;2056107;86;21068;-85
2021/12/24 05:33:39;;;;;;;38.45;21.50;;;;;;;0.44;100.00;96952.19;2073890;86;21534;-83
2021/12/24 05:36:39;;;;;;;38.33;21.93;;;;;;;0.45;100.00;96961.03;2056223;86;21004;-82
2021/12/24 05:39:40;;;;;;;36.10;20.85;;;;;;;0.44;100.00;96962.00;2073672;85;21106;-82
2021/12/24 05:42:41;;;;;;;34.70;20.48;;;;;;;0.48;100.00;96959.45;2074182;85;21044;-82
2021/12/24 05:45:42;;;;;;;31.90;19.62;;;;;;;0.51;100.00;96954.45;2066265;85;21016;-85
2021/12/24 05:48:43;;;;;;;30.02;20.17;;;;;;;0.53;100.00;96960.25;2171159;82;21465;-87
2021/12/24 05:51:43;;;;;;;27.48;18.52;;;;;;;0.56;100.00;96958.17;2171004;81;21308;-82
2021/12/24 05:54:44;;;;;;;31.62;20.68;;;;;;;0.57;100.00;96953.83;2171108;81;21569;-83
2021/12/24 05:57:45;;;;;;;53.55;35.10;;;;;;;0.57;100.00;96960.27;2171135;81;20963;-82
2021/12/24 06:00:48;;;;;;;68.33;39.05;;;;;;;0.59;100.00;96954.95;2171213;81;21061;-82
2021/12/24 06:03:48;;;;;;;44.55;24.72;;;;;;;0.58;100.00;96953.34;2171198;82;21082;-83
2021/12/24 06:06:49;;;;;;;34.45;19.85;;;;;;;0.62;100.00;96950.27;2171083;82;20970;-83
2021/12/24 06:09:50;;;;;;;31.42;20.20;;;;;;;0.64;100.00;96957.84;2170994;81;20993;-81
2021/12/24 06:12:51;;;;;;;29.23;19.80;;;;;;;0.66;100.00;96954.64;2171058;81;21582;-82
2021/12/24 06:15:52;;;;;;;29.02;19.45;;;;;;;0.67;100.00;96960.11;2171003;82;21013;-83
2021/12/24 06:18:54;;;;;;;28.38;19.40;;;;;;;0.70;100.00;96955.92;2171097;81;20986;-82
2021/12/24 06:21:55;;;;;;;28.12;19.30;;;;;;;0.73;100.00;96956.88;2170984;81;20947;-83
2021/12/24 06:24:56;;;;;;;26.10;19.65;;;;;;;0.78;100.00;96967.52;2171199;82;21073;-82
2021/12/24 06:27:57;;;;;;;25.82;18.62;;;;;;;0.79;100.00;96957.05;2170931;81;21002;-82
2021/12/24 06:30:57;;;;;;;26.23;18.90;;;;;;;0.85;100.00;96960.77;2171094;81;21321;-83
2021/12/24 06:33:59;;;;;;;21.42;16.25;;;;;;;0.88;100.00;96963.02;2171115;81;21061;-83
2021/12/24 06:37:00;;;;;;;30.02;23.47;;;;;;;0.90;100.00;96957.20;2171326;82;21097;-83
2021/12/24 06:40:01;;;;;;;32.88;23.45;;;;;;;0.94;100.00;96966.73;2178078;81;21021;-82
2021/12/24 06:43:02;;;;;;;30.50;20.88;;;;;;;0.96;100.00;96953.19;2187816;81;21551;-82
2021/12/24 06:46:10;;;;;;;27.77;18.37;;;;;;;0.98;100.00;96957.20;2187384;81;20978;-83
2021/12/24 06:49:06;;;;;;;26.52;18.17;;;;;;;1.00;100.00;96957.84;2187098;81;21115;-83
2021/12/24 06:52:06;;;;;;;21.85;16.60;;;;;;;1.03;100.00;96962.70;2187641;81;21025;-83
2021/12/24 06:55:08;;;;;;;19.92;14.53;;;;;;;1.08;100.00;96953.17;2187557;81;22176;-83
2021/12/24 06:58:09;;;;;;;19.55;15.23;;;;;;;1.13;100.00;96948.34;2187707;81;21049;-84
2021/12/24 07:01:10;;;;;;;22.42;15.53;;;;;;;1.17;100.00;96951.39;2187836;81;21558;-83
2021/12/24 07:04:10;;;;;;;19.73;14.90;;;;;;;1.19;100.00;96941.26;2187695;81;20977;-82
2021/12/24 07:07:11;;;;;;;16.35;13.58;;;;;;;1.22;100.00;96945.28;2187827;81;21478;-83
2021/12/24 07:10:12;;;;;;;17.98;13.65;;;;;;;1.28;100.00;96945.89;2187950;81;21005;-83
2021/12/24 07:13:13;;;;;;;20.92;15.53;;;;;;;1.28;100.00;96936.86;2187789;81;21025;-83
2021/12/24 07:16:14;;;;;;;18.27;14.13;;;;;;;1.31;100.00;96937.84;2187866;81;21013;-81
2021/12/24 07:19:15;;;;;;;24.47;17.57;;;;;;;1.37;100.00;96944.91;2187738;81;21041;-82
2021/12/24 07:22:18;;;;;;;20.37;13.90;;;;;;;1.43;100.00;96959.73;2187806;81;21628;-82
2021/12/24 07:25:18;;;;;;;22.10;16.17;;;;;;;1.47;100.00;96959.73;2187718;81;21588;-82
2021/12/24 07:28:19;;;;;;;21.93;15.53;;;;;;;1.51;100.00;96949.89;2187710;81;20981;-82
2021/12/24 07:31:20;;;;;;;28.55;23.32;;;;;;;1.52;100.00;96941.98;2187847;81;21005;-80
2021/12/24 07:34:21;;;;;;;25.17;14.98;;;;;;;1.58;100.00;96940.52;2187777;81;21026;-82
2021/12/24 07:37:22;;;;;;;19.98;13.03;;;;;;;1.64;100.00;96946.28;2187959;81;20989;-80
2021/12/24 07:40:25;;;;;;;17.12;12.35;;;;;;;1.64;100.00;96950.96;2179723;81;20991;-83
2021/12/24 07:43:25;;;;;;;20.37;14.20;;;;;;;1.71;100.00;96935.14;2170933;81;21006;-82
2021/12/24 07:46:34;;;;;;;20.92;13.13;;;;;;;1.79;100.00;96933.02;2170753;81;21450;-83
2021/12/24 07:49:30;;;;;;;21.37;13.62;;;;;;;1.81;100.00;96940.10;2171116;81;21504;-83
2021/12/24 07:52:31;;;;;;;16.40;12.10;;;;;;;1.85;100.00;96943.97;2171134;81;20958;-84
2021/12/24 07:55:32;;;;;;;20.80;16.37;;;;;;;1.88;100.00;96951.38;2171226;82;21088;-82
2021/12/24 07:58:33;;;;;;;21.93;19.60;;;;;;;1.94;100.00;96941.68;2171156;82;21510;-83
2021/12/24 08:01:34;;;;;;;22.10;14.43;;;;;;;1.98;100.00;96935.19;2171310;81;21006;-87
2021/12/24 08:04:34;;;;;;;26.05;15.13;;;;;;;2.05;100.00;96938.41;2171265;82;20999;-86
2021/12/24 08:07:35;;;;;;;26.52;14.73;;;;;;;2.09;100.00;96937.08;2171192;82;20954;-85
2021/12/24 08:10:37;;;;;;;43.42;35.83;;;;;;;2.11;100.00;96930.80;2171138;81;21113;-85
2021/12/24 08:13:38;;;;;;;39.75;35.35;;;;;;;2.13;100.00;96939.17;2171039;82;21010;-85
2021/12/24 08:16:39;;;;;;;30.30;17.35;;;;;;;2.12;100.00;96951.77;2171028;82;21043;-85
2021/12/24 08:19:39;;;;;;;26.90;14.10;;;;;;;2.18;100.00;96943.81;2171253;81;21092;-85
2021/12/24 08:22:40;;;;;;;26.97;16.15;;;;;;;2.21;100.00;96943.00;2171074;81;20990;-85
2021/12/24 08:25:41;;;;;;;22.40;13.83;;;;;;;2.23;100.00;96944.12;2171193;81;21482;-84
2021/12/24 08:28:42;;;;;;;17.15;13.50;;;;;;;2.26;100.00;96947.15;2171374;81;21523;-85
2021/12/24 08:31:43;;;;;;;20.12;13.75;;;;;;;2.33;100.00;96959.39;2171161;81;20982;-84
2021/12/24 08:34:44;;;;;;;19.80;13.80;;;;;;;2.34;100.00;96947.59;2171251;82;21560;-82
2021/12/24 08:37:45;;;;;;;20.60;14.98;;;;;;;2.38;100.00;96953.22;2160422;82;21052;-82
2021/12/24 08:40:46;;;;;;;16.30;12.80;;;;;;;2.39;100.00;96938.86;2179529;81;21101;-83
2021/12/24 08:43:46;;;;;;;18.70;12.58;;;;;;;2.45;100.00;96933.48;2187857;81;21052;-83
2021/12/24 08:46:47;;;;;;;16.50;11.85;;;;;;;2.44;100.00;96937.84;2187853;81;20973;-86
2021/12/24 08:49:48;;;;;;;16.02;12.98;;;;;;;2.49;100.00;96929.59;2187612;81;21109;-83
2021/12/24 08:52:49;;;;;;;23.05;20.25;;;;;;;2.52;100.00;96930.05;2187760;81;21021;-83
2021/12/24 08:55:50;;;;;;;22.35;15.70;;;;;;;2.53;100.00;96930.36;2187780;81;20981;-84
2021/12/24 08:58:51;;;;;;;19.52;14.35;;;;;;;2.55;100.00;96925.02;2187764;81;20962;-85
2021/12/24 09:01:52;;;;;;;21.85;14.40;;;;;;;2.62;100.00;96925.13;2187846;81;21021;-89
2021/12/24 09:04:52;;;;;;;18.77;13.43;;;;;;;2.66;100.00;96922.53;2187768;81;20984;-83
2021/12/24 09:07:53;;;;;;;19.92;14.43;;;;;;;2.68;100.00;96920.09;2187695;81;20961;-83
2021/12/24 09:10:54;;;;;;;20.40;14.33;;;;;;;2.73;100.00;96922.14;2187588;81;21080;-83
2021/12/24 09:13:55;;;;;;;18.75;13.72;;;;;;;2.72;100.00;96912.29;2187708;81;21030;-83
2021/12/24 09:17:00;;;;;;;17.10;14.28;;;;;;;2.72;100.00;96905.03;2187792;81;21512;-82
2021/12/24 09:19:59;;;;;;;24.82;16.65;;;;;;;2.76;100.00;96905.02;2187280;81;21075;-83
2021/12/24 09:23:01;;;;;;;26.85;16.82;;;;;;;2.79;100.00;96906.75;2187578;81;21062;-87
2021/12/24 09:26:02;;;;;;;24.10;16.35;;;;;;;2.81;100.00;96903.49;2187738;81;21003;-79
2021/12/24 09:29:03;;;;;;;25.62;16.57;;;;;;;2.85;100.00;96898.30;2187843;81;20958;-80
2021/12/24 09:32:04;;;;;;;25.27;17.10;;;;;;;2.90;100.00;96895.67;2187809;81;21095;-79
2021/12/24 09:35:05;;;;;;;20.50;15.45;;;;;;;2.95;100.00;96889.50;2187640;81;21025;-79
2021/12/24 09:38:05;;;;;;;21.33;14.58;;;;;;;2.98;100.00;96891.23;2187758;81;22054;-79
2021/12/24 09:41:06;;;;;;;20.52;15.72;;;;;;;3.01;100.00;96890.87;2187609;81;21147;-79
2021/12/24 09:44:10;;;;;;;21.02;14.78;;;;;;;3.04;100.00;96879.39;2187220;81;21021;-82
2021/12/24 09:47:10;;;;;;;23.02;15.35;;;;;;;3.06;100.00;96876.94;2187169;81;21064;-82
2021/12/24 09:50:11;;;;;;;22.67;16.37;;;;;;;3.17;100.00;96880.86;2187350;81;21084;-84
2021/12/24 09:53:11;;;;;;;21.93;13.98;;;;;;;3.24;100.00;96879.18;2187558;81;21013;-84
2021/12/24 09:56:12;;;;;;;20.25;13.50;;;;;;;3.27;100.00;96879.31;2187481;81;21016;-83
2021/12/24 09:59:13;;;;;;;23.07;15.13;;;;;;;3.28;100.00;96875.25;2187743;81;20997;-83
2021/12/24 10:02:17;;;;;;;22.67;15.38;;;;;;;3.32;100.00;96879.59;2187574;81;21052;-84
2021/12/24 10:05:17;;;;;;;19.95;14.18;;;;;;;3.32;100.00;96868.75;2187669;81;21084;-82
2021/12/24 10:08:17;;;;;;;17.60;13.13;;;;;;;3.32;100.00;96873.12;2187943;81;21013;-85
2021/12/24 10:11:24;;;;;;;15.70;12.70;;;;;;;3.32;100.00;96870.53;2187683;81;20994;-84
2021/12/24 10:14:24;;;;;;;20.60;13.13;;;;;;;3.35;100.00;96870.97;2187579;81;21092;-85
2021/12/24 10:17:24;;;;;;;18.50;13.85;;;;;;;3.38;100.00;96879.69;2187943;81;21040;-82
2021/12/24 10:20:25;;;;;;;22.10;15.45;;;;;;;3.39;100.00;96874.02;2187687;81;20934;-84
2021/12/24 10:23:26;;;;;;;30.12;22.60;;;;;;;3.40;100.00;96873.04;2187936;81;21513;-83
2021/12/24 10:26:27;;;;;;;42.25;32.83;;;;;;;3.40;100.00;96863.48;2187892;81;21024;-83
2021/12/24 10:29:28;;;;;;;47.70;38.58;;;;;;;3.41;100.00;96856.53;2187990;81;20973;-83
2021/12/24 10:32:29;;;;;;;31.33;22.67;;;;;;;3.43;100.00;96841.62;2187834;81;20989;-83
2021/12/24 10:35:30;;;;;;;27.30;16.12;;;;;;;3.49;100.00;96855.14;2187767;81;20989;-83
2021/12/24 10:38:30;;;;;;;24.15;15.53;;;;;;;3.57;100.00;96848.58;2187715;81;21012;-83
2021/12/24 10:41:31;;;;;;;24.15;16.02;;;;;;;3.59;100.00;96843.22;2187747;81;20954;-83
2021/12/24 10:44:35;;;;;;;23.65;16.17;;;;;;;3.68;100.00;96844.23;2187835;81;20965;-83
2021/12/24 10:47:38;;;;;;;22.98;16.87;;;;;;;3.68;100.00;96831.29;2187966;81;21073;-84
2021/12/24 10:50:49;;;;;;;22.80;14.95;;;;;;;3.71;100.00;96836.09;2188008;81;21089;-83
2021/12/24 10:53:41;;;;;;;21.42;15.48;;;;;;;3.75;100.00;96835.25;2186373;81;21037;-82
2021/12/24 10:56:42;;;;;;;22.70;16.23;;;;;;;3.79;100.00;96843.45;2187769;81;20994;-83
2021/12/24 10:59:49;;;;;;;22.32;17.37;;;;;;;3.79;100.00;96843.45;2187943;81;21493;-83
2021/12/24 11:02:48;;;;;;;23.40;17.25;;;;;;;3.81;100.00;96842.77;2187692;81;21065;-82
2021/12/24 11:05:50;;;;;;;26.52;17.27;;;;;;;3.80;100.00;96832.91;2187787;81;20985;-89
2021/12/24 11:08:50;;;;;;;27.35;18.90;;;;;;;3.83;100.00;96817.00;2187597;81;21533;-81
2021/12/24 11:11:55;;;;;;;26.20;17.05;;;;;;;3.84;100.00;96813.45;2187805;81;21049;-84
2021/12/24 11:14:54;;;;;;;25.82;18.12;;;;;;;3.88;100.00;96815.16;2187398;81;21009;-83
2021/12/24 11:17:55;;;;;;;28.85;18.92;;;;;;;3.86;100.00;96811.97;2187737;81;21536;-81
2021/12/24 11:20:55;;;;;;;28.85;19.35;;;;;;;3.90;100.00;96805.42;2187802;81;20985;-84
2021/12/24 11:23:56;;;;;;;31.00;21.07;;;;;;;3.95;100.00;96806.48;2187761;81;21061;-84
2021/12/24 11:26:57;;;;;;;29.63;19.92;;;;;;;4.03;100.00;96808.66;2187651;81;21473;-83
2021/12/24 11:29:58;;;;;;;22.60;17.30;;;;;;;4.09;100.00;96802.72;2170410;81;21016;-85
2021/12/24 11:32:59;;;;;;;25.10;18.32;;;;;;;4.10;100.00;96806.41;2187627;81;21021;-83
2021/12/24 11:36:00;;;;;;;29.27;19.02;;;;;;;4.09;100.00;96798.34;2187754;81;20965;-82
2021/12/24 11:39:01;;;;;;;31.12;24.20;;;;;;;4.13;100.00;96806.56;2187668;81;21492;-87
2021/12/24 11:42:01;;;;;;;31.48;18.52;;;;;;;4.11;100.00;96808.51;2176630;81;21029;-86
2021/12/24 11:45:02;;;;;;;31.52;19.05;;;;;;;4.15;100.00;96800.20;2171012;81;21112;-85
2021/12/24 11:48:03;;;;;;;27.58;17.80;;;;;;;4.23;100.00;96788.91;2171185;82;21001;-84
2021/12/24 11:51:04;;;;;;;33.42;24.15;;;;;;;4.34;100.00;96794.08;2171566;82;21006;-87
2021/12/24 11:54:05;;;;;;;28.87;24.18;;;;;;;4.40;100.00;96781.19;2171113;81;20935;-84
2021/12/24 11:57:06;;;;;;;31.40;19.73;;;;;;;4.45;100.00;96783.20;2171055;81;21339;-88
2021/12/24 12:00:06;;;;;;;24.63;16.87;;;;;;;4.45;100.00;96775.43;2171236;81;20966;-92
2021/12/24 12:03:08;;;;;;;27.35;18.52;;;;;;;4.45;100.00;96767.16;2171098;82;21533;-85
2021/12/24 12:06:09;;;;;;;36.13;24.45;;;;;;;4.49;100.00;96764.52;2170901;82;21026;-87
2021/12/24 12:09:11;;;;;;;26.00;18.90;;;;;;;4.50;100.00;96771.30;2170959;81;21045;-84
2021/12/24 12:12:15;;;;;;;29.10;21.57;;;;;;;4.55;100.00;96774.61;2171051;82;21109;-84
2021/12/24 12:15:14;;;;;;;31.95;22.80;;;;;;;4.55;100.00;96772.02;2170807;81;21080;-85
2021/12/24 12:18:16;;;;;;;31.05;20.97;;;;;;;4.52;100.00;96778.38;2171024;82;20932;-86
2021/12/24 12:21:20;;;;;;;26.90;19.98;;;;;;;4.54;100.00;96774.30;2136235;82;20994;-82
2021/12/24 12:27:22;;;;;;;24.77;19.48;;;;;;;4.40;100.00;96751.89;2171027;81;20990;-82
2021/12/24 12:30:23;;;;;;;31.27;22.65;;;;;;;4.37;100.00;96748.35;2171150;81;21414;-82
2021/12/24 12:33:24;;;;;;;38.17;24.30;;;;;;;4.31;100.00;96749.92;2171024;81;21116;-83
2021/12/24 12:36:25;;;;;;;35.90;23.95;;;;;;;4.29;100.00;96751.88;2171054;82;20943;-82
2021/12/24 12:39:26;;;;;;;40.12;25.45;;;;;;;4.31;100.00;96749.13;2171222;81;21492;-87
2021/12/24 12:42:27;;;;;;;37.75;26.20;;;;;;;4.31;100.00;96747.83;2170950;82;21002;-85
2021/12/24 12:45:30;;;;;;;32.00;21.05;;;;;;;4.27;100.00;96746.09;2171088;82;21564;-85
2021/12/24 12:48:30;;;;;;;30.95;21.25;;;;;;;4.29;100.00;96755.27;2171131;81;21150;-85
2021/12/24 12:51:31;;;;;;;29.20;21.00;;;;;;;4.31;100.00;96753.02;2171543;81;20970;-84
2021/12/24 12:54:32;;;;;;;43.85;30.82;;;;;;;4.32;100.00;96743.75;2171207;81;21052;-85
2021/12/24 12:57:33;;;;;;;39.70;23.60;;;;;;;4.34;100.00;96755.22;2171012;81;20962;-87
2021/12/24 13:00:34;;;;;;;32.35;18.60;;;;;;;4.38;100.00;96765.50;2171161;82;21045;-88
2021/12/24 13:03:35;;;;;;;27.80;16.37;;;;;;;4.33;100.00;96769.16;2171001;82;21074;-88
2021/12/24 13:06:36;;;;;;;26.57;16.50;;;;;;;4.30;100.00;96770.34;2171283;81;21619;-88
2021/12/24 13:09:37;;;;;;;58.73;32.35;;;;;;;4.28;100.00;96766.63;2170996;81;21072;-84
2021/12/24 13:12:39;;;;;;;41.18;26.65;;;;;;;4.23;100.00;96769.48;2171273;81;21065;-85
2021/12/24 13:15:40;;;;;;;28.07;17.87;;;;;;;4.18;100.00;96769.23;2171113;81;21532;-88
2021/12/24 13:18:42;;;;;;;24.15;16.45;;;;;;;4.16;100.00;96772.02;2171496;81;20970;-83
2021/12/24 13:24:48;;;;;;;21.25;14.07;;;;;;;4.15;100.00;96769.61;2074316;85;21080;-84
2021/12/24 13:27:52;;;;;;;46.83;31.48;;;;;;;4.17;100.00;96774.11;2074538;85;20960;-81
2021/12/24 13:30:52;;;;;;;68.50;41.58;;;;;;;4.22;100.00;96766.59;2056356;86;21018;-84
2021/12/24 13:33:53;;;;;;;31.40;18.87;;;;;;;4.27;100.00;96768.11;2074352;86;21559;-85
2021/12/24 13:36:55;;;;;;;25.90;16.82;;;;;;;4.26;100.00;96754.36;2074021;86;21087;-84
2021/12/24 13:39:56;;;;;;;26.85;15.15;;;;;;;4.25;100.00;96759.73;2073946;86;20988;-85
2021/12/24 13:42:56;;;;;;;26.23;15.58;;;;;;;4.26;100.00;96761.33;2054011;86;21080;-86
2021/12/24 13:45:57;;;;;;;22.98;16.23;;;;;;;4.25;100.00;96754.55;2053427;87;21067;-85
2021/12/24 13:49:17;;;;;;;31.35;21.75;;;;;;;4.21;100.00;96743.77;2053619;87;21136;-87
2021/12/24 13:55:20;;;;;;;31.52;18.45;;;;;;;4.21;100.00;96743.77;2053578;86;21115;-85
2021/12/24 13:58:24;;;;;;;30.30;18.23;;;;;;;4.22;100.00;96747.96;2053463;87;21476;-84
2021/12/24 14:01:24;;;;;;;20.82;13.58;;;;;;;4.23;100.00;96748.27;2082989;83;21039;-85
2021/12/24 14:04:25;;;;;;;23.05;14.87;;;;;;;4.22;100.00;96738.09;2140412;83;21564;-83
2021/12/24 14:07:26;;;;;;;27.40;17.32;;;;;;;4.18;100.00;96744.13;2140707;83;21015;-88
2021/12/24 14:10:27;;;;;;;25.62;15.55;;;;;;;4.16;100.00;96747.41;2141136;83;20953;-85
2021/12/24 14:13:31;;;;;;;28.17;16.62;;;;;;;4.18;100.00;96732.97;2141959;83;21514;-87
2021/12/24 14:16:57;;;;;;;27.10;16.93;;;;;;;4.17;100.00;96734.75;2141089;83;21463;-84
2021/12/24 14:19:37;;;;;;;25.85;15.90;;;;;;;4.20;100.00;96727.09;2138040;83;21020;-83
2021/12/24 14:22:36;;;;;;;27.25;16.02;;;;;;;4.21;100.00;96721.75;2140264;83;21084;-82
2021/12/24 14:25:37;;;;;;;24.37;14.60;;;;;;;4.21;100.00;96726.13;2140624;83;21025;-84
2021/12/24 14:28:38;;;;;;;35.15;20.20;;;;;;;4.20;100.00;96727.89;2140602;83;21107;-85
2021/12/24 14:31:38;;;;;;;22.62;16.97;;;;;;;4.18;100.00;96725.98;2140576;83;21043;-85
2021/12/24 14:34:39;;;;;;;18.27;14.30;;;;;;;4.21;100.00;96728.72;2140485;83;20933;-84
2021/12/24 14:37:40;;;;;;;19.42;13.13;;;;;;;4.22;100.00;96728.53;2140919;83;21543;-87
2021/12/24 14:40:41;;;;;;;17.90;12.00;;;;;;;4.23;100.00;96717.67;2140549;83;20968;-86
2021/12/24 14:43:42;;;;;;;18.77;12.65;;;;;;;4.23;100.00;96720.27;2169507;81;21133;-84
2021/12/24 14:46:43;;;;;;;19.87;15.72;;;;;;;4.23;100.00;96721.56;2160924;82;21042;-86
2021/12/24 14:49:44;;;;;;;22.17;15.90;;;;;;;4.23;100.00;96724.15;2171047;81;21008;-83
2021/12/24 14:52:46;;;;;;;23.18;16.65;;;;;;;4.25;100.00;96723.46;2171197;81;21489;-85
2021/12/24 14:55:47;;;;;;;21.97;13.43;;;;;;;4.24;100.00;96715.39;2171236;82;21522;-88
2021/12/24 14:58:48;;;;;;;24.43;14.68;;;;;;;4.24;100.00;96711.50;2171249;82;21002;-86
2021/12/24 15:01:51;;;;;;;19.12;13.50;;;;;;;4.24;100.00;96711.50;2171267;82;20970;-86
2021/12/24 15:04:51;;;;;;;23.85;14.58;;;;;;;4.24;100.00;96712.80;2171465;81;20975;-85
2021/12/24 15:07:52;;;;;;;22.30;13.20;;;;;;;4.22;100.00;96711.69;2171228;81;21002;-85
2021/12/24 15:10:53;;;;;;;27.22;19.07;;;;;;;4.24;100.00;96706.32;2171131;81;20998;-86
2021/12/24 15:13:54;;;;;;;23.85;16.25;;;;;;;4.23;100.00;96707.31;2171186;81;21516;-85
2021/12/24 15:16:55;;;;;;;22.40;14.07;;;;;;;4.24;100.00;96709.70;2171100;81;21506;-84
2021/12/24 15:19:56;;;;;;;21.45;14.75;;;;;;;4.26;100.00;96706.92;2171209;81;20994;-86
2021/12/24 15:22:57;;;;;;;24.80;14.75;;;;;;;4.25;100.00;96698.84;2171321;82;20977;-84
2021/12/24 15:25:58;;;;;;;24.30;14.87;;;;;;;4.25;100.00;96700.95;2171133;81;21001;-84
2021/12/24 15:28:59;;;;;;;27.62;15.80;;;;;;;4.28;100.00;96700.56;2171298;81;20986;-84
2021/12/24 15:32:00;;;;;;;30.97;17.10;;;;;;;4.29;100.00;96696.17;2171051;81;21104;-85
2021/12/24 15:35:01;;;;;;;22.20;14.63;;;;;;;4.32;100.00;96705.38;2171323;82;21038;-84
2021/12/24 15:38:01;;;;;;;23.75;14.60;;;;;;;4.34;100.00;96699.51;2171096;82;20997;-84